Grand Forks Air Force Base, ND (58204)

9:05 AM CST on February 11, 2016 (GMT -0600)
Grand Forks Air Force Base | | Change Station
CLOSE
Current Station
Airport
Location: Grand Forks AFB,
Elevation: 912 ft
Nearby Weather Stations

Elev 912 ft 47.96 °N, 97.40 °W | Updated 7 minutes ago

Light Snow
Light Snow
7 °F
Feels Like -3 °F
N
6
Wind Variable Wind from South

Today
High -- | Low -- °F
--% Chance of Precip.
Yesterday
High -- | Low -- °F
Precip. -- in
Pressure 30.33 in
Visibility 10.0 miles
Clouds Scattered Clouds 2600 ft
Overcast 3100 ft
Windchill -3 °F
Dew Point 1 °F
Humidity 75%
Rainfall 0.00 in
Snow Depth Not available.
7:43 AM 5:45 PM
Waxing Crescent, 12% visible
METAR KRDR 111458Z 17005KT 10SM -SN SCT026 OVC031 M14/M17 A3024 RMK AO2A SNE1358SNB39 SLP269 P0000 60000 T11381173 56010
Pressure 30.33 in
Visibility 10.0 miles
Clouds Scattered Clouds 2600 ft
Overcast 3100 ft
Windchill -3 °F
Dew Point 1 °F
Humidity 75%
Rainfall 0.00 in
Snow Depth Not available.
7:43 AM 5:45 PM
Waxing Crescent, 12% visible
METAR KRDR 111458Z 17005KT 10SM -SN SCT026 OVC031 M14/M17 A3024 RMK AO2A SNE1358SNB39 SLP269 P0000 60000 T11381173 56010

10-Day Weather Forecast

Almanac

Astronomy

Feb. 11, 2016 Rise Set
Actual Time
Civil Twilight
Nautical Twilight
Astronomical Twilight
Moon
Length of Visible Light
Length of Day
Tomorrow will be .
, % of the Moon is Illuminated

Today's Extremes

State Highs State Lows

Community

WunderPhotos

Upload Photos

1,892,059 photos uploaded!

WunderBlog® & News

Nearby

Air Quality

  Air Quality AQ Index Pollutant
Not available.

Snow Depth

Station Depth Elevation

Earthquake Activity

City Distance Mag. Time & Date
Minimum magnitude displayed is 2.5.

Coastal Water Temperatures

Place Temperature

Stations

Nearby Weather Stations

Station Location Temp. Windchill Dew Point Humidity Wind Precip. Elev Updated Type
                   

Watches & Warnings

There are currently no watches in effect.